Smyrna, GA

1:10 PM EDT on August 28, 2016 (GMT -0400)
McDonough 2nd location | | Change Station

Elev 823 ft 33.82 °N, 84.48 °W | Updated 13 seconds ago

Mostly Cloudy
Mostly Cloudy
87.4 °F
Feels Like 93 °F
N
8.1
Wind Variable Wind from SSE
Gusts 9.8 mph

Today
High -- | Low -- °F
--% Chance of Precip.
Yesterday
High -- | Low -- °F
Precip. -- in
Pressure 30.14 in
Visibility 10.0 miles
Clouds Few 3500 ft
Scattered Clouds 6500 ft
Mostly Cloudy 25000 ft
Heat Index 93 °F
Dew Point 70 °F
Humidity 57%
Rainfall 0.00 in
Snow Depth Not available.
7:09 AM 8:08 PM
Waning Crescent, 14% visible
METAR KMGE 281658Z 01007KT 10SM FEW035 SCT065 BKN250 30/21 A3017 RMK AO2A SLP206 T02980209 $
Pressure 30.14 in
Visibility 10.0 miles
Clouds Few 3500 ft
Scattered Clouds 6500 ft
Mostly Cloudy 25000 ft
Heat Index 93 °F
Dew Point 70 °F
Humidity 57%
Rainfall 0.00 in
Snow Depth Not available.
7:09 AM 8:08 PM
Waning Crescent, 14% visible
METAR KMGE 281658Z 01007KT 10SM FEW035 SCT065 BKN250 30/21 A3017 RMK AO2A SLP206 T02980209 $

10-Day Weather Forecast

Almanac

Astronomy

Aug. 28, 2016 Rise Set
Actual Time
Civil Twilight
Nautical Twilight
Astronomical Twilight
Moon
Length of Visible Light
Length of Day
Tomorrow will be .
, % of the Moon is Illuminated

Today's Extremes

State Highs State Lows

Community

WunderPhotos

Upload Photos

1,935,627 photos uploaded!

WunderBlog® & News

Nearby

Air Quality

  Air Quality AQ Index Pollutant
Not available.

Snow Depth

Station Depth Elevation

Earthquake Activity

City Distance Mag. Time & Date
Minimum magnitude displayed is 2.5.

Coastal Water Temperatures

Place Temperature

Stations

Nearby Weather Stations

Station Location Temp. Windchill Dew Point Humidity Wind Precip. Elev Updated Type
                   

Watches & Warnings

There are currently no watches in effect.